Details From FAPE - Port Elizabeth
To FALE - DURBAN - KING SHAKA INTERNATIONAL
Flight Number -
Tags generated
Created
Modified
Stats Distance 388 nm / 718 km
Max Altitude 35,000 ft / 10,668 m
Waypoints 6
Social Downloads 2
Likes 0
Share VATSIM

Download

Looking for another format? Having issues loading an existing format? Contact us
Advertisement - Login to hide

Notes

Basic altitude profile: - Ascent Rate: 2500ft/min - Ascent Speed: 250kts - Cruise Altitude: 35000ft - Cruise Speed: 420kts - Descent Rate: 1500ft/min - Descent Speed: 250kts Options: - Use NATs: yes - Use PACOTS: yes - Use low airways: yes - Use high airways: yes

Route

FAPE GESEP UQ30 AXISI FALE

ID Type Via Altitude Latitude Longitude Leg Dist Tot Dist Heading (true) Name
O FAPE APT - 0 ft / 0 m -33.98894˚ 25.61434˚ - 0 nm - Port Elizabeth
GESEP FIX - 27,400 ft / 8,352 m -32.91646˚ 26.54995˚ 79 nm 79 nm 36° / 36° -
UVBIG FIX UQ30 (AWY-HI) 35,000 ft / 10,668 m -32.03709˚ 27.89968˚ 86 nm 166 nm 53° / 52° -
ERBUT FIX UQ30 (AWY-HI) 31,400 ft / 9,571 m -31.35530˚ 29.00983˚ 69 nm 236 nm 54° / 54° -
AXISI FIX UQ30 (AWY-HI) 21,600 ft / 6,584 m -30.84213˚ 29.78636˚ 50 nm 286 nm 53° / 52° -
O FALE APT - 0 ft / 0 m -29.61177˚ 31.11931˚ 101 nm 387 nm 43° / 43° DURBAN - KING SHAKA INTERNATIONAL

Altitude Profile

Advertisement - Login to hide

Weather


0- 5 10 15 20 25 30 35+ Temperature / ° C

Clouds and Precipitation
Forecast for 2017-12-15 12:00 UTC. Updated an hour ago

Ground ~20,000 ft ~40,000 ft Winds

FAPE

Details ICAO FAPE (PLZ)
Name Port Elizabeth
Region South Africa
Timezone Africa/Johannesburg (UTC+2.0)
Stats Elevation 226 ft / 69 m (AMSL)
Location -33.988941° 25.614335°
Runways 3
Magnetic Variation 28.497° W

METAR

FAPE 151200Z 09016KT CAVOK 21/12 Q1017 NOSIG

Decode

TAF

Not found

Departure Runways

ID Width Length Bearing (true) Bearing (mag) Surface Threshold Offset Overrun Length
08 151 ft / 46 m 6,502 ft / 1,982 m 58.13° 86.63° Asphalt 0 ft / 0 m 295 ft / 90 m
10 60 ft / 18 m 3,898 ft / 1,188 m 81.21° 109.71° Grass 0 ft / 0 m 132 ft / 40 m
17 151 ft / 46 m 5,507 ft / 1,679 m 145.70° 174.20° Asphalt 0 ft / 0 m 197 ft / 60 m
26 151 ft / 46 m 6,502 ft / 1,982 m 238.11° 266.61° Asphalt 0 ft / 0 m 0 ft / 0 m
28 60 ft / 18 m 3,898 ft / 1,188 m 261.21° 289.71° Grass 0 ft / 0 m 0 ft / 0 m
35 151 ft / 46 m 5,507 ft / 1,679 m 325.70° 354.20° Asphalt 0 ft / 0 m 0 ft / 0 m

FALE

Details ICAO FALE
Name DURBAN - KING SHAKA INTERNATIONAL
Region South Africa
Timezone Africa/Johannesburg (UTC+2.0)
Stats Elevation 304 ft / 93 m (AMSL)
Location -29.611771° 31.119312°
Runways 1
Magnetic Variation 25.284° W

METAR

FALE 151200Z 05012KT 9999 FEW025 SCT040 22/14 Q1020 NOSIG

Decode

TAF

Not found

Destination Runways

ID Width Length Bearing (true) Bearing (mag) Surface Threshold Offset Overrun Length
06 200 ft / 61 m 12,158 ft / 3,706 m 37.13° 62.41° Asphalt 0 ft / 0 m 0 ft / 0 m
24 200 ft / 61 m 12,158 ft / 3,706 m 217.12° 242.40° Asphalt 0 ft / 0 m 0 ft / 0 m

Popular Alternatives